Time;durP1;ratioP1;P1;durP2;ratioP2;P2;SDS_P1;SDS_P2;PMS_P1;PMS_P2;Temp;Humidity;BMP_temperature;BMP_pressure;BME280_temperature;BME280_humidity;BME280_pressure;Samples;Min_cycle;Max_cycle;Signal;HPM_P1;HPM_P2
2021/04/19 00:01:42;;;;;;;6.53;2.22;;;;;;;20.68;nan;103060.84;5060780;28;20392;-58
2021/04/19 00:04:08;;;;;;;4.95;2.47;;;;;;;20.69;nan;103061.69;5074019;28;20025;-58
2021/04/19 00:06:34;;;;;;;4.45;2.60;;;;;;;20.73;nan;103053.09;5061217;28;20455;-59
2021/04/19 00:08:59;;;;;;;7.38;2.20;;;;;;;20.76;nan;103065.63;5054115;28;20103;-58
2021/04/19 00:11:24;;;;;;;4.15;1.85;;;;;;;20.76;nan;103062.00;5053637;28;20499;-58
2021/04/19 00:13:50;;;;;;;6.82;2.78;;;;;;;20.78;nan;103066.34;5053768;28;20066;-58
2021/04/19 00:16:15;;;;;;;4.88;2.22;;;;;;;20.73;nan;103058.56;5053560;28;20031;-58
2021/04/19 00:18:40;;;;;;;3.83;1.63;;;;;;;20.80;nan;103063.47;5053488;28;20103;-58
2021/04/19 00:21:06;;;;;;;4.25;1.77;;;;;;;20.81;nan;103057.00;5053534;28;20456;-59
2021/04/19 00:23:31;;;;;;;5.10;2.10;;;;;;;20.75;nan;103063.03;5054013;28;20024;-59
2021/04/19 00:25:56;;;;;;;5.55;2.40;;;;;;;20.77;nan;103063.75;5053525;28;20044;-59
2021/04/19 00:28:22;;;;;;;5.15;2.65;;;;;;;20.73;nan;103058.56;5053231;28;20103;-59
2021/04/19 00:30:47;;;;;;;7.78;2.65;;;;;;;20.76;nan;103062.00;5053331;28;20052;-58
2021/04/19 00:33:12;;;;;;;6.80;2.20;;;;;;;20.77;nan;103058.28;5071742;28;20122;-59
2021/04/19 00:35:38;;;;;;;4.47;2.22;;;;;;;20.72;nan;103062.28;5073346;28;20016;-59
2021/04/19 00:38:03;;;;;;;5.03;2.25;;;;;;;20.73;nan;103053.09;5073141;28;20032;-59
2021/04/19 00:40:31;;;;;;;4.57;2.28;;;;;;;20.73;nan;103064.03;5073154;28;20040;-58
2021/04/19 00:42:56;;;;;;;6.78;2.47;;;;;;;20.75;nan;103055.69;5073061;28;20029;-59
2021/04/19 00:45:23;;;;;;;4.40;2.38;;;;;;;20.73;nan;103053.09;5071555;28;20460;-59
2021/04/19 00:47:49;;;;;;;5.45;2.05;;;;;;;20.66;nan;103049.16;5063144;28;20025;-58
2021/04/19 00:50:22;;;;;;;3.72;2.20;;;;;;;20.79;nan;103053.53;5053014;28;20021;-59
2021/04/19 00:52:48;;;;;;;5.97;1.92;;;;;;;20.82;nan;103056.00;5052891;28;20024;-59
2021/04/19 00:55:15;;;;;;;5.90;2.00;;;;;;;20.82;nan;103050.53;5051379;28;20068;-58
2021/04/19 00:57:41;;;;;;;5.63;2.03;;;;;;;20.83;nan;103044.97;5052896;28;20029;-59
2021/04/19 01:00:11;;;;;;;4.97;2.05;;;;;;;20.87;nan;103048.28;5052790;28;20021;-58
2021/04/19 01:02:38;;;;;;;5.47;2.42;;;;;;;20.85;nan;103048.41;5052513;28;20029;-58
2021/04/19 01:05:08;;;;;;;5.90;2.53;;;;;;;20.95;nan;103048.44;5052711;28;20028;-58
2021/04/19 01:07:33;;;;;;;4.25;2.22;;;;;;;20.89;nan;103055.34;5052766;28;20487;-59
2021/04/19 01:09:59;;;;;;;3.13;1.88;;;;;;;20.83;nan;103042.22;5052871;28;20028;-59
2021/04/19 01:12:24;;;;;;;6.50;2.65;;;;;;;20.31;nan;103051.28;5052509;28;20716;-58
2021/04/19 01:14:49;;;;;;;5.35;1.90;;;;;;;20.06;nan;103050.66;5052570;28;20198;-59
2021/04/19 01:17:14;;;;;;;5.25;2.05;;;;;;;19.92;nan;103055.53;5052505;28;20032;-58
2021/04/19 01:19:40;;;;;;;5.22;2.67;;;;;;;19.80;nan;103054.69;5052600;28;20476;-58
2021/04/19 01:22:05;;;;;;;4.97;2.03;;;;;;;19.74;nan;103052.50;5052509;28;20021;-59
2021/04/19 01:24:30;;;;;;;4.13;1.83;;;;;;;19.63;nan;103050.63;5052369;28;20538;-59
2021/04/19 01:26:56;;;;;;;6.00;2.28;;;;;;;19.55;nan;103042.25;5052484;28;20115;-58
2021/04/19 01:29:21;;;;;;;4.45;2.03;;;;;;;19.55;nan;103041.38;5052784;28;20201;-59
2021/04/19 01:31:46;;;;;;;6.85;2.38;;;;;;;19.49;nan;103054.50;5052674;28;20017;-58
2021/04/19 01:34:11;;;;;;;6.15;1.73;;;;;;;19.42;nan;103058.72;5052271;28;20025;-58
2021/04/19 01:36:37;;;;;;;5.45;2.22;;;;;;;19.43;nan;103052.25;5051876;28;20482;-59
2021/04/19 01:39:03;;;;;;;8.10;2.60;;;;;;;19.39;nan;103053.50;5052379;28;20051;-58
2021/04/19 01:41:29;;;;;;;5.20;2.08;;;;;;;19.36;nan;103055.63;5052203;28;20025;-58
2021/04/19 01:43:54;;;;;;;5.90;2.30;;;;;;;19.33;nan;103054.03;5052310;28;20033;-58
2021/04/19 01:46:20;;;;;;;6.70;2.42;;;;;;;19.28;nan;103053.50;5054632;28;20086;-58
2021/04/19 01:48:45;;;;;;;5.32;2.10;;;;;;;19.31;nan;103045.06;5056401;28;20025;-58
2021/04/19 01:51:11;;;;;;;3.53;2.10;;;;;;;19.27;nan;103046.31;5056324;28;20025;-59
2021/04/19 01:53:36;;;;;;;3.95;1.80;;;;;;;19.27;nan;103049.03;5056403;28;20043;-59
2021/04/19 01:56:01;;;;;;;7.13;2.25;;;;;;;19.27;nan;103045.44;5056141;28;20067;-58
2021/04/19 01:58:27;;;;;;;6.22;2.40;;;;;;;19.25;nan;103051.03;5055131;28;20464;-58
2021/04/19 02:00:58;;;;;;;5.32;2.28;;;;;;;19.23;nan;103050.28;5060047;28;20039;-58
2021/04/19 02:03:45;;;;;;;6.50;2.92;;;;;;;19.23;nan;103047.56;5075410;28;20028;-58
2021/04/19 02:06:22;;;;;;;7.03;2.90;;;;;;;19.23;nan;103053.88;5056010;28;20025;-59
2021/04/19 02:09:16;;;;;;;6.38;2.15;;;;;;;19.18;nan;103056.13;5055988;28;20048;-58
2021/04/19 02:12:14;;;;;;;6.20;2.30;;;;;;;19.18;nan;103049.81;5056326;28;20464;-59
2021/04/19 02:15:05;;;;;;;4.85;2.35;;;;;;;19.15;nan;103050.06;5053497;28;20029;-58
2021/04/19 02:18:00;;;;;;;6.63;2.65;;;;;;;19.21;nan;103046.81;5055566;28;20028;-58
2021/04/19 02:20:37;;;;;;;8.05;2.28;;;;;;;19.58;nan;103046.56;5055823;28;20059;-58
2021/04/19 02:23:13;;;;;;;4.10;1.90;;;;;;;19.83;nan;103046.28;5055652;28;20100;-58
2021/04/19 02:25:41;;;;;;;6.05;2.20;;;;;;;19.99;nan;103043.13;5055715;28;20025;-58
2021/04/19 02:28:15;;;;;;;7.05;2.55;;;;;;;20.11;nan;103040.19;5055611;28;20020;-58
2021/04/19 02:30:45;;;;;;;5.50;1.65;;;;;;;20.24;nan;103045.50;5055675;28;20415;-59
2021/04/19 02:33:14;;;;;;;5.72;2.38;;;;;;;20.30;nan;103049.56;5055462;28;20040;-58
2021/04/19 02:35:43;;;;;;;5.55;2.35;;;;;;;20.31;nan;103035.75;5055102;28;20029;-58
2021/04/19 02:38:11;;;;;;;4.05;1.80;;;;;;;20.33;nan;103043.84;5055526;28;20018;-58
2021/04/19 02:40:38;;;;;;;3.50;1.77;;;;;;;20.30;nan;103039.50;5055348;28;20057;-58
2021/04/19 02:43:05;;;;;;;3.60;1.58;;;;;;;20.34;nan;103034.66;5055488;28;20419;-58
2021/04/19 02:45:32;;;;;;;7.20;2.58;;;;;;;20.39;nan;103035.13;5055281;28;20483;-58
2021/04/19 02:47:58;;;;;;;4.90;2.30;;;;;;;20.38;nan;103030.66;5055452;28;20042;-59
2021/04/19 02:50:26;;;;;;;6.13;2.03;;;;;;;20.41;nan;103036.75;5055130;28;20025;-59
2021/04/19 02:52:51;;;;;;;5.05;2.00;;;;;;;20.43;nan;102958.25;5053959;28;20021;-58
2021/04/19 02:55:20;;;;;;;4.18;1.70;;;;;;;20.46;nan;102942.56;5054888;28;20102;-58
2021/04/19 02:57:51;;;;;;;5.68;2.30;;;;;;;20.48;nan;102944.16;5055269;28;20028;-59
2021/04/19 03:00:21;;;;;;;4.80;1.95;;;;;;;20.58;nan;103029.81;5056216;28;20048;-58
2021/04/19 03:02:47;;;;;;;5.88;2.13;;;;;;;20.62;nan;103047.69;5059689;28;20309;-58
2021/04/19 03:05:15;;;;;;;5.32;2.25;;;;;;;20.61;nan;103037.75;5054869;28;20175;-58
2021/04/19 03:07:46;;;;;;;5.25;1.95;;;;;;;20.61;nan;103037.75;5055050;28;20025;-59
2021/04/19 03:10:16;;;;;;;4.05;1.90;;;;;;;20.63;nan;103030.28;5054585;28;20047;-58
2021/04/19 03:12:47;;;;;;;6.80;2.75;;;;;;;20.62;nan;103038.63;5054793;28;20036;-58
2021/04/19 03:15:16;;;;;;;5.55;2.28;;;;;;;20.68;nan;103038.09;5054733;28;20468;-58
2021/04/19 03:17:42;;;;;;;4.05;2.08;;;;;;;20.66;nan;103046.44;5053912;28;20479;-58
2021/04/19 03:20:13;;;;;;;6.07;1.85;;;;;;;20.66;nan;103040.97;5054725;28;20104;-58
2021/04/19 03:22:42;;;;;;;6.53;2.30;;;;;;;20.72;nan;103039.56;5054904;28;20108;-59
2021/04/19 03:25:09;;;;;;;5.80;2.20;;;;;;;20.69;nan;103013.38;5054583;28;20487;-59
2021/04/19 03:27:36;;;;;;;6.70;2.35;;;;;;;20.63;nan;103016.59;5054521;28;20024;-58
2021/04/19 03:30:03;;;;;;;5.15;1.80;;;;;;;20.61;nan;103021.34;5054651;28;20051;-59
2021/04/19 03:32:34;;;;;;;5.10;2.63;;;;;;;20.64;nan;103012.88;5073569;28;20024;-58
2021/04/19 03:35:04;;;;;;;5.47;1.77;;;;;;;20.66;nan;103019.09;5074546;28;20028;-58
2021/04/19 03:37:33;;;;;;;3.42;1.75;;;;;;;20.66;nan;103013.63;5074350;28;20109;-58
2021/04/19 03:40:04;;;;;;;4.30;1.73;;;;;;;20.63;nan;103011.16;5057639;28;20035;-58
2021/04/19 03:42:33;;;;;;;6.00;3.03;;;;;;;20.66;nan;103013.63;5054307;28;20287;-58
2021/04/19 03:45:02;;;;;;;4.75;2.03;;;;;;;20.66;nan;103008.16;5054235;28;20028;-59
2021/04/19 03:47:30;;;;;;;4.15;1.80;;;;;;;20.64;nan;103015.59;5054127;28;20111;-59
2021/04/19 03:49:59;;;;;;;5.32;2.42;;;;;;;20.63;nan;103016.59;5054203;28;20419;-58
2021/04/19 03:52:33;;;;;;;4.57;2.20;;;;;;;20.63;nan;103013.00;5054057;28;20028;-59
2021/04/19 03:55:01;;;;;;;5.28;2.03;;;;;;;20.60;nan;103008.69;5053977;28;20033;-59
2021/04/19 03:57:28;;;;;;;8.43;2.42;;;;;;;20.62;nan;103001.22;5053650;28;20063;-58
2021/04/19 03:59:56;;;;;;;9.68;2.72;;;;;;;20.60;nan;103003.22;5054228;28;20053;-58
2021/04/19 04:02:24;;;;;;;5.93;2.72;;;;;;;21.15;nan;103022.91;5053707;28;20032;-59
2021/04/19 04:04:50;;;;;;;5.78;2.60;;;;;;;21.82;nan;102986.69;5052443;28;20060;-58
2021/04/19 04:07:16;;;;;;;7.70;2.42;;;;;;;22.06;nan;102986.31;5053187;28;20029;-59
2021/04/19 04:09:42;;;;;;;4.93;2.30;;;;;;;21.90;nan;103000.53;5053210;28;20147;-59
2021/04/19 04:12:09;;;;;;;4.22;2.10;;;;;;;21.69;nan;103009.88;5053793;28;20116;-58
2021/04/19 04:14:35;;;;;;;3.72;2.05;;;;;;;21.63;nan;103014.03;5053612;28;20021;-59
2021/04/19 04:17:01;;;;;;;5.32;1.90;;;;;;;21.55;nan;103011.16;5053684;28;20025;-58
2021/04/19 04:19:26;;;;;;;4.68;2.20;;;;;;;21.46;nan;102990.09;5052165;28;20031;-58
2021/04/19 04:21:52;;;;;;;7.68;2.78;;;;;;;21.41;nan;102986.91;5053714;28;20021;-59
2021/04/19 04:24:19;;;;;;;8.27;3.28;;;;;;;21.37;nan;102985.47;5053295;28;20029;-59
2021/04/19 04:26:44;;;;;;;6.82;2.75;;;;;;;21.31;nan;102984.13;5053401;28;20067;-59
2021/04/19 04:29:10;;;;;;;6.07;2.30;;;;;;;21.30;nan;102991.47;5053901;28;20391;-59
2021/04/19 04:31:35;;;;;;;4.68;2.38;;;;;;;21.27;nan;102986.28;5053471;28;20029;-59
2021/04/19 04:34:00;;;;;;;5.85;2.30;;;;;;;21.24;nan;102994.78;5053434;28;20028;-59
2021/04/19 04:36:25;;;;;;;6.47;2.50;;;;;;;21.32;nan;102988.59;5052715;28;20384;-59
2021/04/19 04:38:51;;;;;;;3.72;1.95;;;;;;;21.36;nan;102989.22;5053235;28;20629;-59
2021/04/19 04:41:16;;;;;;;5.18;2.03;;;;;;;21.42;nan;102989.50;5052030;28;20032;-59
2021/04/19 04:43:44;;;;;;;6.97;2.45;;;;;;;21.40;nan;102990.66;5053212;28;20025;-59
2021/04/19 04:46:33;;;;;;;5.00;2.22;;;;;;;21.44;nan;102992.09;5053097;28;20037;-59
2021/04/19 04:49:19;;;;;;;4.10;1.98;;;;;;;21.44;nan;102992.97;5052908;28;20049;-59
2021/04/19 04:51:47;;;;;;;5.00;2.50;;;;;;;21.45;nan;102993.81;5053146;28;20031;-60
2021/04/19 04:54:17;;;;;;;5.85;2.28;;;;;;;21.47;nan;102987.19;5052825;28;20017;-59
2021/04/19 04:56:44;;;;;;;4.78;2.35;;;;;;;21.49;nan;103003.47;5052675;28;20057;-59
2021/04/19 04:59:12;;;;;;;5.22;1.95;;;;;;;21.54;nan;102993.00;5052802;28;20546;-59
2021/04/19 05:01:38;;;;;;;3.65;1.85;;;;;;;21.52;nan;102989.53;5069556;28;20082;-59
2021/04/19 05:04:05;;;;;;;5.68;2.63;;;;;;;21.53;nan;102992.13;5072732;28;20024;-59
2021/04/19 05:06:31;;;;;;;5.72;2.45;;;;;;;21.54;nan;102993.00;5072743;28;20112;-59
2021/04/19 05:08:57;;;;;;;7.32;2.80;;;;;;;21.55;nan;102997.47;5071404;28;20114;-59
2021/04/19 05:11:23;;;;;;;5.68;2.22;;;;;;;21.53;nan;102980.31;5072842;28;20025;-59
2021/04/19 05:13:48;;;;;;;5.72;2.28;;;;;;;21.55;nan;102989.25;5072815;28;20525;-59
2021/04/19 05:16:27;;;;;;;5.80;2.30;;;;;;;21.51;nan;102985.06;5072554;28;20039;-59
2021/04/19 05:18:53;;;;;;;3.60;2.17;;;;;;;21.52;nan;102984.06;5072497;28;20410;-59
2021/04/19 05:21:18;;;;;;;7.93;3.00;;;;;;;21.50;nan;102986.94;5072469;28;20032;-59
2021/04/19 05:23:44;;;;;;;4.28;2.10;;;;;;;21.52;nan;102984.06;5072582;28;20024;-59
2021/04/19 05:26:10;;;;;;;4.28;1.80;;;;;;;21.50;nan;102980.56;5072466;28;20571;-59
2021/04/19 05:28:36;;;;;;;6.97;2.28;;;;;;;21.46;nan;102987.34;5060245;28;20392;-59
2021/04/19 05:31:02;;;;;;;5.43;2.20;;;;;;;21.40;nan;102980.56;5063889;28;20041;-59
2021/04/19 05:33:27;;;;;;;5.53;2.30;;;;;;;21.43;nan;102990.38;5072382;28;20033;-59
2021/04/19 05:35:52;;;;;;;5.05;2.42;;;;;;;21.35;nan;102987.47;5072498;28;20120;-59
2021/04/19 05:38:18;;;;;;;5.30;2.20;;;;;;;21.35;nan;102985.59;5072218;28;20059;-59
2021/04/19 05:40:44;;;;;;;5.55;2.40;;;;;;;21.36;nan;102991.94;5072264;28;20043;-59
2021/04/19 05:43:10;;;;;;;5.85;2.42;;;;;;;21.35;nan;102992.94;5072301;28;20556;-59
2021/04/19 05:45:37;;;;;;;6.93;2.10;;;;;;;21.27;nan;102996.38;5072299;28;20033;-59
2021/04/19 05:48:04;;;;;;;6.50;2.55;;;;;;;21.25;nan;103001.13;5072350;28;20029;-60
2021/04/19 05:50:30;;;;;;;4.70;2.30;;;;;;;21.22;nan;102999.50;5072235;28;20476;-60
2021/04/19 05:52:57;;;;;;;5.43;2.58;;;;;;;21.25;nan;102999.25;5072029;28;20040;-59
2021/04/19 05:55:26;;;;;;;6.97;2.67;;;;;;;21.24;nan;103003.00;5068356;28;20424;-59
2021/04/19 05:58:09;;;;;;;5.13;2.45;;;;;;;21.21;nan;103003.25;5051598;28;20109;-59
2021/04/19 06:00:51;;;;;;;5.13;2.17;;;;;;;21.25;nan;103001.97;5066156;28;20035;-59
2021/04/19 06:03:38;;;;;;;4.78;2.67;;;;;;;21.21;nan;102997.78;5072208;28;20127;-59
2021/04/19 06:06:25;;;;;;;5.20;2.53;;;;;;;21.14;nan;102988.38;5065081;28;20032;-59
2021/04/19 06:08:53;;;;;;;5.53;2.22;;;;;;;21.18;nan;102995.31;5056025;28;20027;-59
2021/04/19 06:11:33;;;;;;;6.90;2.35;;;;;;;21.11;nan;102980.44;5056453;28;20464;-59
2021/04/19 06:14:01;;;;;;;4.70;2.33;;;;;;;21.14;nan;103002.03;5061190;28;20025;-59
2021/04/19 06:16:28;;;;;;;4.70;2.22;;;;;;;21.13;nan;103000.31;5054686;28;20491;-59
2021/04/19 06:18:55;;;;;;;4.35;2.30;;;;;;;21.12;nan;102997.72;5053495;28;20032;-59
2021/04/19 06:21:20;;;;;;;6.03;2.40;;;;;;;21.11;nan;103002.31;5057566;28;20487;-60
2021/04/19 06:23:46;;;;;;;5.97;2.05;;;;;;;21.05;nan;103008.34;5053816;28;20051;-59
2021/04/19 06:26:11;;;;;;;5.28;2.60;;;;;;;21.08;nan;103013.53;5069768;28;20059;-59
2021/04/19 06:28:37;;;;;;;4.63;2.35;;;;;;;21.05;nan;103002.88;5058656;28;20044;-59
2021/04/19 06:31:05;;;;;;;5.10;2.90;;;;;;;21.03;nan;103004.91;5052081;28;20049;-60
2021/04/19 06:33:32;;;;;;;4.05;1.83;;;;;;;21.02;nan;102993.09;5047739;28;20032;-59
2021/04/19 06:35:57;;;;;;;4.63;2.20;;;;;;;21.04;nan;103003.88;5057440;28;20048;-59
2021/04/19 06:38:24;;;;;;;7.20;2.30;;;;;;;21.00;nan;102994.25;5055847;28;20075;-59
2021/04/19 06:40:50;;;;;;;5.20;2.17;;;;;;;21.03;nan;103002.16;5054784;28;20024;-59
2021/04/19 06:43:16;;;;;;;4.95;2.20;;;;;;;21.01;nan;102994.09;5055004;28;20051;-59
2021/04/19 06:45:41;;;;;;;5.07;2.60;;;;;;;21.02;nan;103003.16;5056420;28;20559;-59
2021/04/19 06:48:11;;;;;;;5.72;2.63;;;;;;;21.01;nan;103001.44;5060455;28;20108;-60
2021/04/19 06:50:38;;;;;;;7.18;2.97;;;;;;;21.05;nan;103002.03;5054596;28;20377;-59
2021/04/19 06:53:04;;;;;;;5.88;2.15;;;;;;;21.06;nan;103004.63;5051279;28;20021;-59
2021/04/19 06:55:30;;;;;;;4.65;1.92;;;;;;;21.05;nan;102994.69;5049866;28;20409;-59
2021/04/19 06:58:00;;;;;;;4.88;2.25;;;;;;;21.08;nan;103001.75;5062900;28;20020;-59
2021/04/19 07:00:30;;;;;;;6.13;2.42;;;;;;;21.12;nan;102998.59;5066554;28;20035;-59
2021/04/19 07:02:58;;;;;;;6.80;2.30;;;;;;;21.13;nan;103000.31;5056320;28;20086;-59
2021/04/19 07:05:31;;;;;;;5.65;2.13;;;;;;;21.16;nan;103005.50;5054803;28;20021;-59
2021/04/19 07:08:16;;;;;;;7.25;2.60;;;;;;;21.15;nan;103009.25;5056181;28;20108;-59
2021/04/19 07:10:43;;;;;;;4.88;2.05;;;;;;;21.13;nan;102999.44;5066163;28;20073;-59
2021/04/19 07:13:11;;;;;;;5.80;2.40;;;;;;;21.18;nan;102998.06;5055897;28;20070;-59
2021/04/19 07:15:39;;;;;;;5.03;2.08;;;;;;;21.20;nan;102990.56;5065203;28;20028;-59
2021/04/19 07:18:06;;;;;;;5.65;2.45;;;;;;;21.18;nan;102998.06;5050653;28;20029;-59
2021/04/19 07:20:32;;;;;;;6.63;2.42;;;;;;;21.19;nan;103004.38;5072163;28;20039;-59
2021/04/19 07:23:00;;;;;;;4.28;2.05;;;;;;;21.14;nan;102988.38;5071322;28;20044;-59
2021/04/19 07:25:25;;;;;;;7.43;2.58;;;;;;;21.20;nan;102987.84;5052386;28;20044;-59
2021/04/19 07:27:51;;;;;;;5.00;2.67;;;;;;;21.19;nan;102991.56;5053408;28;20028;-60
2021/04/19 07:30:17;;;;;;;4.78;2.00;;;;;;;21.19;nan;102994.31;5053885;28;20104;-59
2021/04/19 07:32:42;;;;;;;4.47;2.30;;;;;;;21.18;nan;102984.38;5054313;28;20425;-59
2021/04/19 07:35:09;;;;;;;5.80;2.40;;;;;;;21.12;nan;102990.38;5051172;28;20131;-59
2021/04/19 07:37:34;;;;;;;4.65;1.95;;;;;;;21.14;nan;102990.25;5050868;28;20032;-59
2021/04/19 07:40:02;;;;;;;4.78;2.15;;;;;;;21.16;nan;102991.81;5052180;28;20025;-59
2021/04/19 07:42:27;;;;;;;5.38;2.35;;;;;;;21.18;nan;102992.59;5050547;28;20044;-59
2021/04/19 07:44:54;;;;;;;6.82;2.53;;;;;;;21.13;nan;102993.97;5049773;28;20459;-60
2021/04/19 07:47:41;;;;;;;5.68;2.30;;;;;;;21.20;nan;102989.72;5048181;28;20393;-59
2021/04/19 07:50:13;;;;;;;5.57;2.25;;;;;;;21.12;nan;102981.31;5048988;28;20021;-59
2021/04/19 07:53:07;;;;;;;7.65;2.90;;;;;;;21.15;nan;102992.84;5054900;28;20546;-60
2021/04/19 07:55:35;;;;;;;7.47;2.38;;;;;;;21.16;nan;102989.09;5060012;22;20049;-60
2021/04/19 07:58:01;;;;;;;5.38;2.17;;;;;;;21.17;nan;102985.38;5038686;28;20115;-60
2021/04/19 08:00:40;;;;;;;4.85;2.67;;;;;;;21.20;nan;102996.03;5054130;28;20039;-59
2021/04/19 08:03:07;;;;;;;7.03;2.80;;;;;;;21.14;nan;102991.09;5055474;28;20268;-60
2021/04/19 08:05:36;;;;;;;4.85;2.38;;;;;;;21.20;nan;102986.97;5046308;28;20037;-60
2021/04/19 08:08:02;;;;;;;8.38;2.35;;;;;;;21.15;nan;102987.34;5052735;28;20434;-60
2021/04/19 08:10:28;;;;;;;4.65;2.13;;;;;;;21.10;nan;102984.19;5051771;28;20052;-60
2021/04/19 08:13:05;;;;;;;4.38;2.17;;;;;;;21.09;nan;102985.19;5049160;28;20379;-59
2021/04/19 08:15:31;;;;;;;5.53;2.50;;;;;;;21.14;nan;102982.03;5049956;28;20049;-59
2021/04/19 08:18:02;;;;;;;6.47;2.90;;;;;;;21.13;nan;102983.91;5049094;28;20025;-60
2021/04/19 08:20:28;;;;;;;5.38;2.45;;;;;;;21.15;nan;102981.03;5049068;28;20102;-59
2021/04/19 08:23:09;;;;;;;5.95;2.70;;;;;;;21.10;nan;102978.72;5052296;28;20025;-59
2021/04/19 08:25:37;;;;;;;5.95;2.45;;;;;;;21.15;nan;102981.88;5039162;28;20032;-59
2021/04/19 08:28:11;;;;;;;5.63;2.42;;;;;;;21.17;nan;102979.03;5053400;28;20033;-60
2021/04/19 08:30:37;;;;;;;;;;;;;;;21.12;nan;102975.84;5053571;28;20468;-60
2021/04/19 08:33:03;;;;;;;8.55;2.90;;;;;;;21.13;nan;102983.91;5055922;28;19958;-59
2021/04/19 08:35:29;;;;;;;6.53;2.15;;;;;;;21.15;nan;102981.88;5051096;28;20023;-59
2021/04/19 08:37:58;;;;;;;6.30;2.65;;;;;;;21.16;nan;102978.16;5052519;28;20053;-59
2021/04/19 08:40:28;;;;;;;5.60;2.28;;;;;;;21.12;nan;102971.22;5048703;28;20559;-59
2021/04/19 08:42:55;;;;;;;5.53;2.47;;;;;;;21.12;nan;102971.22;5049543;28;20029;-58
2021/04/19 08:45:22;;;;;;;4.13;1.83;;;;;;;21.14;nan;102969.22;5065602;28;20082;-58
2021/04/19 08:47:48;;;;;;;5.30;2.70;;;;;;;21.15;nan;102964.63;5052702;28;20033;-59
2021/04/19 08:50:27;;;;;;;5.65;2.42;;;;;;;21.21;nan;102964.94;5050705;28;20032;-59
2021/04/19 08:52:54;;;;;;;6.80;2.50;;;;;;;21.14;nan;102971.97;5063056;28;20052;-58
2021/04/19 08:55:24;;;;;;;4.80;2.30;;;;;;;21.23;nan;102962.06;5049622;28;20036;-59
2021/04/19 08:57:51;;;;;;;7.88;2.33;;;;;;;21.23;nan;102973.88;5048758;28;20033;-59
2021/04/19 09:00:21;;;;;;;6.97;1.77;;;;;;;21.27;nan;102961.66;5052766;28;20036;-58
2021/04/19 09:02:46;;;;;;;6.35;2.28;;;;;;;21.30;nan;102964.13;5045198;28;20021;-59
2021/04/19 09:05:15;;;;;;;4.88;1.90;;;;;;;21.28;nan;102971.59;5049944;28;20040;-59
2021/04/19 09:07:46;;;;;;;6.07;2.13;;;;;;;21.27;nan;102964.41;5032582;28;20086;-59
2021/04/19 09:10:19;;;;;;;5.25;2.50;;;;;;;21.27;nan;102969.88;5050034;28;20029;-59
2021/04/19 09:12:45;;;;;;;6.22;2.45;;;;;;;21.26;nan;102954.47;5051405;28;20024;-58
2021/04/19 09:15:15;;;;;;;5.68;2.35;;;;;;;21.30;nan;102964.13;5048555;28;20032;-59
2021/04/19 09:17:42;;;;;;;5.72;2.28;;;;;;;21.26;nan;102961.81;5053870;28;20028;-60
2021/04/19 09:20:11;;;;;;;4.65;2.20;;;;;;;21.22;nan;102966.66;5047661;28;20021;-60
2021/04/19 09:22:36;;;;;;;4.82;2.08;;;;;;;21.23;nan;102957.47;5052301;28;20045;-59
2021/04/19 09:25:15;;;;;;;6.95;2.63;;;;;;;21.23;nan;102962.06;5049136;28;20488;-59
2021/04/19 09:27:54;;;;;;;5.28;2.10;;;;;;;21.22;nan;102961.19;5048636;28;20380;-59
2021/04/19 09:30:26;;;;;;;6.25;1.95;;;;;;;21.21;nan;102970.41;5050743;28;20077;-59
2021/04/19 09:33:04;;;;;;;5.95;2.42;;;;;;;21.22;nan;102955.72;5055357;28;20516;-60
2021/04/19 09:38:40;;;;;;;4.85;2.35;;;;;;;21.18;nan;102940.59;5049112;28;20116;-60
2021/04/19 09:41:08;;;;;;;6.88;2.03;;;;;;;21.20;nan;102935.84;5048095;28;20024;-60
2021/04/19 09:43:41;;;;;;;6.70;2.60;;;;;;;21.21;nan;102959.47;5046439;28;20037;-59
2021/04/19 09:46:15;;;;;;;6.20;2.30;;;;;;;21.17;nan;102958.03;5046541;28;20029;-60
2021/04/19 09:48:43;;;;;;;5.93;2.47;;;;;;;21.16;nan;102953.53;5051094;28;20107;-60
2021/04/19 09:51:29;;;;;;;6.07;2.88;;;;;;;21.21;nan;102942.19;5033823;28;20499;-59
2021/04/19 09:54:10;;;;;;;5.28;2.13;;;;;;;21.19;nan;102936.00;5051561;28;20020;-59
2021/04/19 09:56:45;;;;;;;9.18;2.08;;;;;;;21.23;nan;102940.19;5050875;28;20102;-60
2021/04/19 09:59:15;;;;;;;5.18;2.00;;;;;;;21.25;nan;102939.06;5047517;28;20025;-59
2021/04/19 10:01:40;;;;;;;4.45;1.50;;;;;;;21.29;nan;102926.81;5039652;28;20055;-60
2021/04/19 10:04:06;;;;;;;5.75;2.20;;;;;;;21.32;nan;102933.88;5068580;28;20028;-60
2021/04/19 10:06:44;;;;;;;5.70;2.67;;;;;;;21.32;nan;102932.00;5062881;28;20025;-60
2021/04/19 10:09:12;;;;;;;4.88;2.58;;;;;;;21.31;nan;102938.50;5064808;28;20029;-60
2021/04/19 10:11:42;;;;;;;5.05;1.98;;;;;;;21.37;nan;102930.75;5067525;28;20032;-60
2021/04/19 10:14:11;;;;;;;5.35;2.20;;;;;;;21.40;nan;102935.94;5028737;28;20018;-60
2021/04/19 10:16:54;;;;;;;5.00;2.17;;;;;;;21.39;nan;102928.72;5047567;28;20029;-60
2021/04/19 10:19:30;;;;;;;2.95;1.70;;;;;;;21.37;nan;102936.22;5061755;28;20040;-59
2021/04/19 10:22:04;;;;;;;6.28;2.33;;;;;;;21.39;nan;102929.59;5058001;28;20025;-60
2021/04/19 10:24:31;;;;;;;4.47;2.03;;;;;;;21.39;nan;102928.72;5036343;28;20025;-60
2021/04/19 10:26:56;;;;;;;6.70;2.40;;;;;;;21.39;nan;102928.72;5056006;28;20044;-59
2021/04/19 10:29:26;;;;;;;4.18;2.28;;;;;;;21.34;nan;102936.50;5039363;28;20468;-60
2021/04/19 10:31:57;;;;;;;6.78;2.60;;;;;;;21.30;nan;102933.16;5066206;28;20052;-59
2021/04/19 10:34:29;;;;;;;4.97;2.17;;;;;;;21.30;nan;102917.59;5039806;28;20025;-60
2021/04/19 10:37:03;;;;;;;4.75;2.40;;;;;;;21.40;nan;102935.94;5053012;28;20371;-59
2021/04/19 10:39:32;;;;;;;4.53;2.00;;;;;;;21.44;nan;102926.41;5064433;28;20025;-60
2021/04/19 10:42:06;;;;;;;4.00;1.98;;;;;;;21.47;nan;102934.34;5051719;28;20349;-60
2021/04/19 10:44:44;;;;;;;5.05;2.20;;;;;;;21.49;nan;102935.06;5051831;28;20071;-60
2021/04/19 10:47:12;;;;;;;4.72;2.30;;;;;;;21.50;nan;102925.84;5051814;28;20026;-60
2021/04/19 10:49:38;;;;;;;5.97;2.58;;;;;;;21.48;nan;102916.91;5047892;28;20120;-59
2021/04/19 10:52:07;;;;;;;8.35;2.33;;;;;;;21.50;nan;102923.09;5041526;28;20448;-60
2021/04/19 10:54:41;;;;;;;3.78;2.08;;;;;;;21.49;nan;102924.13;5049363;28;20044;-59
2021/04/19 10:57:18;;;;;;;4.57;2.10;;;;;;;21.52;nan;102918.38;5047612;28;20037;-59
2021/04/19 10:59:44;;;;;;;7.45;2.75;;;;;;;21.53;nan;102931.06;5019992;28;20061;-59
2021/04/19 11:02:11;;;;;;;6.65;2.50;;;;;;;21.50;nan;102925.84;5043206;28;20071;-59
2021/04/19 11:04:38;;;;;;;5.63;2.47;;;;;;;21.48;nan;102934.19;5065914;28;20024;-59
2021/04/19 11:07:26;;;;;;;5.15;2.00;;;;;;;21.47;nan;102913.31;5062349;28;20372;-58
2021/04/19 11:10:22;;;;;;;6.03;2.55;;;;;;;21.49;nan;102904.94;5052542;28;20468;-58
2021/04/19 11:13:01;;;;;;;5.90;2.13;;;;;;;21.45;nan;102906.25;5052278;28;20041;-59
2021/04/19 11:15:40;;;;;;;5.18;2.00;;;;;;;21.43;nan;102897.31;5042360;28;20024;-61
2021/04/19 11:18:23;;;;;;;5.63;2.13;;;;;;;21.51;nan;102911.19;5051509;28;20029;-60
2021/04/19 11:20:51;;;;;;;4.53;1.63;;;;;;;21.46;nan;102902.50;5047884;28;20108;-60
2021/04/19 11:23:23;;;;;;;4.55;2.03;;;;;;;21.45;nan;102906.25;5053679;28;20078;-63
2021/04/19 11:25:50;;;;;;;5.95;2.40;;;;;;;21.40;nan;102905.81;5049082;28;20111;-63
2021/04/19 11:28:21;;;;;;;3.95;1.90;;;;;;;21.45;nan;102909.00;5048099;28;20032;-63
2021/04/19 11:30:48;;;;;;;5.80;2.20;;;;;;;21.38;nan;102907.84;5052224;28;20353;-63
2021/04/19 11:33:19;;;;;;;7.50;2.22;;;;;;;21.40;nan;102906.69;5050132;28;20028;-62
2021/04/19 11:35:47;;;;;;;4.88;2.00;;;;;;;21.38;nan;102899.63;5050361;28;20059;-62
2021/04/19 11:38:22;;;;;;;5.20;2.60;;;;;;;21.36;nan;102901.66;5026481;28;20079;-63
2021/04/19 11:40:50;;;;;;;6.47;2.53;;;;;;;21.35;nan;102891.72;5048620;28;20161;-63
2021/04/19 11:43:21;;;;;;;6.18;2.80;;;;;;;21.37;nan;102903.38;5055603;28;20036;-63
2021/04/19 11:46:11;;;;;;;5.47;2.30;;;;;;;21.39;nan;102896.75;5054977;28;20781;-62
2021/04/19 11:48:42;;;;;;;4.10;1.80;;;;;;;21.42;nan;102899.19;5039066;28;20032;-69
2021/04/19 11:51:09;;;;;;;2.63;1.15;;;;;;;21.32;nan;102899.19;5052261;28;20028;-69
2021/04/19 11:53:37;;;;;;;1.90;0.95;;;;;;;21.37;nan;102897.91;5034240;28;20029;-73
2021/04/19 11:56:05;;;;;;;2.40;0.85;;;;;;;21.28;nan;102895.00;5054607;28;20037;-69